sensor_id;sensor_type;location;lat;lon;timestamp;P1;durP1;ratioP1;P2;durP2;ratioP2
70592;SDS011;58294;42.988;20.338;2022-12-24T00:00:06;79.55;;;64.13;;
70592;SDS011;58294;42.988;20.338;2022-12-24T00:02:32;149.98;;;122.80;;
70592;SDS011;58294;42.988;20.338;2022-12-24T00:04:58;132.68;;;92.70;;
70592;SDS011;58294;42.988;20.338;2022-12-24T00:07:24;46.10;;;37.30;;
70592;SDS011;58294;42.988;20.338;2022-12-24T00:09:49;56.90;;;43.28;;
70592;SDS011;58294;42.988;20.338;2022-12-24T00:12:15;58.03;;;42.58;;
70592;SDS011;58294;42.988;20.338;2022-12-24T00:14:41;202.50;;;134.43;;
70592;SDS011;58294;42.988;20.338;2022-12-24T00:17:06;172.73;;;111.53;;
70592;SDS011;58294;42.988;20.338;2022-12-24T00:19:32;112.97;;;77.18;;
70592;SDS011;58294;42.988;20.338;2022-12-24T00:21:58;79.95;;;61.03;;
70592;SDS011;58294;42.988;20.338;2022-12-24T00:24:24;71.90;;;55.45;;
70592;SDS011;58294;42.988;20.338;2022-12-24T00:26:49;68.53;;;52.50;;
70592;SDS011;58294;42.988;20.338;2022-12-24T00:29:15;82.22;;;62.25;;
70592;SDS011;58294;42.988;20.338;2022-12-24T00:31:41;104.97;;;80.30;;
70592;SDS011;58294;42.988;20.338;2022-12-24T00:34:06;119.38;;;88.95;;
70592;SDS011;58294;42.988;20.338;2022-12-24T00:36:32;102.82;;;80.15;;
70592;SDS011;58294;42.988;20.338;2022-12-24T00:38:58;107.10;;;81.95;;
70592;SDS011;58294;42.988;20.338;2022-12-24T00:41:24;162.70;;;123.18;;
70592;SDS011;58294;42.988;20.338;2022-12-24T00:43:53;137.60;;;113.93;;
70592;SDS011;58294;42.988;20.338;2022-12-24T00:46:20;161.07;;;123.53;;
70592;SDS011;58294;42.988;20.338;2022-12-24T00:48:47;176.73;;;136.13;;
70592;SDS011;58294;42.988;20.338;2022-12-24T00:51:13;196.18;;;141.68;;
70592;SDS011;58294;42.988;20.338;2022-12-24T00:53:39;178.43;;;138.52;;
70592;SDS011;58294;42.988;20.338;2022-12-24T00:56:05;175.07;;;138.75;;
70592;SDS011;58294;42.988;20.338;2022-12-24T00:58:31;216.73;;;161.95;;
70592;SDS011;58294;42.988;20.338;2022-12-24T01:00:57;181.18;;;140.50;;
70592;SDS011;58294;42.988;20.338;2022-12-24T01:03:23;164.25;;;127.13;;
70592;SDS011;58294;42.988;20.338;2022-12-24T01:06:02;160.20;;;123.68;;
70592;SDS011;58294;42.988;20.338;2022-12-24T01:08:29;143.40;;;120.22;;
70592;SDS011;58294;42.988;20.338;2022-12-24T01:10:55;158.88;;;128.73;;
70592;SDS011;58294;42.988;20.338;2022-12-24T01:13:20;152.77;;;123.00;;
70592;SDS011;58294;42.988;20.338;2022-12-24T01:15:46;145.93;;;121.05;;
70592;SDS011;58294;42.988;20.338;2022-12-24T01:18:12;150.50;;;118.30;;
70592;SDS011;58294;42.988;20.338;2022-12-24T01:20:38;153.10;;;123.75;;
70592;SDS011;58294;42.988;20.338;2022-12-24T01:23:04;160.25;;;129.40;;
70592;SDS011;58294;42.988;20.338;2022-12-24T01:25:30;151.93;;;125.30;;
70592;SDS011;58294;42.988;20.338;2022-12-24T01:27:55;150.27;;;125.43;;
70592;SDS011;58294;42.988;20.338;2022-12-24T01:30:21;151.43;;;123.45;;
70592;SDS011;58294;42.988;20.338;2022-12-24T01:32:47;171.50;;;129.00;;
70592;SDS011;58294;42.988;20.338;2022-12-24T01:35:13;169.98;;;133.82;;
70592;SDS011;58294;42.988;20.338;2022-12-24T01:37:38;167.05;;;132.25;;
70592;SDS011;58294;42.988;20.338;2022-12-24T01:40:06;173.50;;;140.05;;
70592;SDS011;58294;42.988;20.338;2022-12-24T01:42:50;161.68;;;126.45;;
70592;SDS011;58294;42.988;20.338;2022-12-24T01:54:12;193.68;;;144.38;;
70592;SDS011;58294;42.988;20.338;2022-12-24T01:56:48;180.65;;;139.38;;
70592;SDS011;58294;42.988;20.338;2022-12-24T02:01:47;164.25;;;135.40;;
70592;SDS011;58294;42.988;20.338;2022-12-24T02:04:24;167.95;;;134.60;;
70592;SDS011;58294;42.988;20.338;2022-12-24T02:07:04;167.43;;;134.40;;
70592;SDS011;58294;42.988;20.338;2022-12-24T02:09:30;163.20;;;128.60;;
70592;SDS011;58294;42.988;20.338;2022-12-24T02:11:58;156.13;;;120.13;;
70592;SDS011;58294;42.988;20.338;2022-12-24T02:14:25;155.00;;;119.57;;
70592;SDS011;58294;42.988;20.338;2022-12-24T02:16:58;139.75;;;106.07;;
70592;SDS011;58294;42.988;20.338;2022-12-24T02:23:14;127.05;;;98.50;;
70592;SDS011;58294;42.988;20.338;2022-12-24T02:30:56;111.80;;;86.93;;
70592;SDS011;58294;42.988;20.338;2022-12-24T02:33:41;115.05;;;84.63;;
70592;SDS011;58294;42.988;20.338;2022-12-24T02:36:19;109.57;;;87.93;;
70592;SDS011;58294;42.988;20.338;2022-12-24T02:38:56;88.63;;;71.75;;
70592;SDS011;58294;42.988;20.338;2022-12-24T02:41:32;96.25;;;73.78;;
70592;SDS011;58294;42.988;20.338;2022-12-24T02:44:19;106.10;;;81.68;;
70592;SDS011;58294;42.988;20.338;2022-12-24T02:46:48;89.00;;;69.53;;
70592;SDS011;58294;42.988;20.338;2022-12-24T02:49:15;90.28;;;72.20;;
70592;SDS011;58294;42.988;20.338;2022-12-24T02:51:41;94.75;;;72.50;;
70592;SDS011;58294;42.988;20.338;2022-12-24T02:54:06;118.38;;;91.28;;
70592;SDS011;58294;42.988;20.338;2022-12-24T03:02:44;153.25;;;118.88;;
70592;SDS011;58294;42.988;20.338;2022-12-24T03:07:36;207.82;;;161.45;;
70592;SDS011;58294;42.988;20.338;2022-12-24T03:15:25;121.57;;;91.93;;
70592;SDS011;58294;42.988;20.338;2022-12-24T03:17:54;124.47;;;101.38;;
70592;SDS011;58294;42.988;20.338;2022-12-24T03:20:45;168.35;;;126.53;;
70592;SDS011;58294;42.988;20.338;2022-12-24T03:23:13;177.95;;;134.15;;
70592;SDS011;58294;42.988;20.338;2022-12-24T03:25:39;150.50;;;120.68;;
70592;SDS011;58294;42.988;20.338;2022-12-24T03:28:08;160.52;;;129.55;;
70592;SDS011;58294;42.988;20.338;2022-12-24T03:30:40;163.93;;;126.63;;
70592;SDS011;58294;42.988;20.338;2022-12-24T03:33:07;172.57;;;130.40;;
70592;SDS011;58294;42.988;20.338;2022-12-24T03:35:33;156.18;;;127.82;;
70592;SDS011;58294;42.988;20.338;2022-12-24T03:37:59;161.18;;;132.38;;
70592;SDS011;58294;42.988;20.338;2022-12-24T03:40:25;194.85;;;147.02;;
70592;SDS011;58294;42.988;20.338;2022-12-24T03:42:50;179.48;;;141.60;;
70592;SDS011;58294;42.988;20.338;2022-12-24T03:45:16;185.00;;;148.38;;
70592;SDS011;58294;42.988;20.338;2022-12-24T03:47:42;210.57;;;157.13;;
70592;SDS011;58294;42.988;20.338;2022-12-24T03:50:08;202.02;;;161.20;;
70592;SDS011;58294;42.988;20.338;2022-12-24T03:52:34;198.60;;;154.27;;
70592;SDS011;58294;42.988;20.338;2022-12-24T03:55:00;190.65;;;156.05;;
70592;SDS011;58294;42.988;20.338;2022-12-24T03:57:25;190.18;;;143.07;;
70592;SDS011;58294;42.988;20.338;2022-12-24T03:59:51;205.20;;;167.48;;
70592;SDS011;58294;42.988;20.338;2022-12-24T04:02:17;148.55;;;122.25;;
70592;SDS011;58294;42.988;20.338;2022-12-24T04:04:43;151.77;;;122.72;;
70592;SDS011;58294;42.988;20.338;2022-12-24T04:07:08;139.15;;;113.65;;
70592;SDS011;58294;42.988;20.338;2022-12-24T04:09:34;136.40;;;105.03;;
70592;SDS011;58294;42.988;20.338;2022-12-24T04:12:00;161.38;;;123.82;;
70592;SDS011;58294;42.988;20.338;2022-12-24T04:14:26;176.23;;;140.90;;
70592;SDS011;58294;42.988;20.338;2022-12-24T04:16:51;173.18;;;141.20;;
70592;SDS011;58294;42.988;20.338;2022-12-24T04:19:17;174.40;;;135.27;;
70592;SDS011;58294;42.988;20.338;2022-12-24T04:21:43;146.50;;;120.28;;
70592;SDS011;58294;42.988;20.338;2022-12-24T04:24:09;134.10;;;112.13;;
70592;SDS011;58294;42.988;20.338;2022-12-24T04:26:34;125.80;;;102.70;;
70592;SDS011;58294;42.988;20.338;2022-12-24T04:29:00;130.98;;;103.53;;
70592;SDS011;58294;42.988;20.338;2022-12-24T04:31:26;122.43;;;102.43;;
70592;SDS011;58294;42.988;20.338;2022-12-24T04:33:52;139.98;;;114.35;;
70592;SDS011;58294;42.988;20.338;2022-12-24T04:36:18;148.32;;;117.28;;
70592;SDS011;58294;42.988;20.338;2022-12-24T04:38:45;152.48;;;118.32;;
70592;SDS011;58294;42.988;20.338;2022-12-24T04:41:15;154.20;;;121.25;;
70592;SDS011;58294;42.988;20.338;2022-12-24T04:43:45;147.77;;;113.25;;
70592;SDS011;58294;42.988;20.338;2022-12-24T04:46:12;159.48;;;121.38;;
70592;SDS011;58294;42.988;20.338;2022-12-24T04:48:42;152.88;;;122.43;;
70592;SDS011;58294;42.988;20.338;2022-12-24T04:51:09;168.43;;;128.20;;
70592;SDS011;58294;42.988;20.338;2022-12-24T04:53:36;146.48;;;121.40;;
70592;SDS011;58294;42.988;20.338;2022-12-24T04:56:02;174.27;;;132.35;;
70592;SDS011;58294;42.988;20.338;2022-12-24T04:58:31;241.63;;;197.13;;
70592;SDS011;58294;42.988;20.338;2022-12-24T05:01:02;135.45;;;104.30;;
70592;SDS011;58294;42.988;20.338;2022-12-24T05:06:05;112.00;;;87.15;;
70592;SDS011;58294;42.988;20.338;2022-12-24T05:08:32;124.78;;;102.82;;
70592;SDS011;58294;42.988;20.338;2022-12-24T05:10:58;130.18;;;106.63;;
70592;SDS011;58294;42.988;20.338;2022-12-24T05:13:25;135.23;;;107.80;;
70592;SDS011;58294;42.988;20.338;2022-12-24T05:15:51;141.00;;;116.63;;
70592;SDS011;58294;42.988;20.338;2022-12-24T05:18:17;181.75;;;142.88;;
70592;SDS011;58294;42.988;20.338;2022-12-24T05:20:44;175.07;;;140.73;;
70592;SDS011;58294;42.988;20.338;2022-12-24T05:23:17;176.10;;;141.35;;
70592;SDS011;58294;42.988;20.338;2022-12-24T05:26:04;180.13;;;142.13;;
70592;SDS011;58294;42.988;20.338;2022-12-24T05:28:48;193.02;;;143.00;;
70592;SDS011;58294;42.988;20.338;2022-12-24T05:31:20;174.95;;;139.93;;
70592;SDS011;58294;42.988;20.338;2022-12-24T05:33:47;174.93;;;135.48;;
70592;SDS011;58294;42.988;20.338;2022-12-24T05:36:13;173.35;;;135.07;;
70592;SDS011;58294;42.988;20.338;2022-12-24T05:38:39;202.30;;;152.98;;
70592;SDS011;58294;42.988;20.338;2022-12-24T05:41:06;188.18;;;145.20;;
70592;SDS011;58294;42.988;20.338;2022-12-24T05:43:33;231.57;;;182.27;;
70592;SDS011;58294;42.988;20.338;2022-12-24T05:45:59;214.82;;;158.60;;
70592;SDS011;58294;42.988;20.338;2022-12-24T05:48:26;187.00;;;132.35;;
70592;SDS011;58294;42.988;20.338;2022-12-24T05:50:53;145.07;;;109.50;;
70592;SDS011;58294;42.988;20.338;2022-12-24T05:53:19;189.98;;;142.50;;
70592;SDS011;58294;42.988;20.338;2022-12-24T05:55:45;212.43;;;156.93;;
70592;SDS011;58294;42.988;20.338;2022-12-24T05:58:11;181.57;;;133.98;;
70592;SDS011;58294;42.988;20.338;2022-12-24T06:00:37;177.02;;;133.02;;
70592;SDS011;58294;42.988;20.338;2022-12-24T06:03:03;252.85;;;179.82;;
70592;SDS011;58294;42.988;20.338;2022-12-24T06:05:28;175.05;;;135.15;;
70592;SDS011;58294;42.988;20.338;2022-12-24T06:07:54;472.45;;;315.77;;
70592;SDS011;58294;42.988;20.338;2022-12-24T06:10:20;380.42;;;264.90;;
70592;SDS011;58294;42.988;20.338;2022-12-24T06:12:46;316.20;;;229.02;;
70592;SDS011;58294;42.988;20.338;2022-12-24T06:15:12;198.35;;;151.35;;
70592;SDS011;58294;42.988;20.338;2022-12-24T06:17:38;221.20;;;165.52;;
70592;SDS011;58294;42.988;20.338;2022-12-24T06:20:04;253.13;;;187.90;;
70592;SDS011;58294;42.988;20.338;2022-12-24T06:22:30;212.10;;;156.82;;
70592;SDS011;58294;42.988;20.338;2022-12-24T06:24:56;241.50;;;176.57;;
70592;SDS011;58294;42.988;20.338;2022-12-24T06:27:22;192.32;;;142.85;;
70592;SDS011;58294;42.988;20.338;2022-12-24T06:29:48;167.70;;;126.80;;
70592;SDS011;58294;42.988;20.338;2022-12-24T06:32:14;183.88;;;137.02;;
70592;SDS011;58294;42.988;20.338;2022-12-24T06:34:39;173.00;;;136.57;;
70592;SDS011;58294;42.988;20.338;2022-12-24T06:37:05;163.75;;;129.82;;
70592;SDS011;58294;42.988;20.338;2022-12-24T06:39:31;182.30;;;139.15;;
70592;SDS011;58294;42.988;20.338;2022-12-24T06:41:57;249.02;;;178.23;;
70592;SDS011;58294;42.988;20.338;2022-12-24T06:44:23;441.55;;;292.05;;
70592;SDS011;58294;42.988;20.338;2022-12-24T06:46:48;214.77;;;152.80;;
70592;SDS011;58294;42.988;20.338;2022-12-24T06:49:14;213.13;;;156.68;;
70592;SDS011;58294;42.988;20.338;2022-12-24T06:51:40;183.55;;;139.07;;
70592;SDS011;58294;42.988;20.338;2022-12-24T06:54:06;169.63;;;133.88;;
70592;SDS011;58294;42.988;20.338;2022-12-24T06:56:32;160.07;;;129.43;;
70592;SDS011;58294;42.988;20.338;2022-12-24T06:58:57;172.73;;;133.07;;
70592;SDS011;58294;42.988;20.338;2022-12-24T07:01:23;173.25;;;134.63;;
70592;SDS011;58294;42.988;20.338;2022-12-24T07:03:49;146.20;;;117.13;;
70592;SDS011;58294;42.988;20.338;2022-12-24T07:06:19;134.88;;;107.70;;
70592;SDS011;58294;42.988;20.338;2022-12-24T07:08:49;168.60;;;135.95;;
70592;SDS011;58294;42.988;20.338;2022-12-24T07:11:15;175.57;;;143.55;;
70592;SDS011;58294;42.988;20.338;2022-12-24T07:13:41;193.55;;;160.13;;
70592;SDS011;58294;42.988;20.338;2022-12-24T07:16:07;199.70;;;156.10;;
70592;SDS011;58294;42.988;20.338;2022-12-24T07:18:33;195.77;;;158.52;;
70592;SDS011;58294;42.988;20.338;2022-12-24T07:20:59;170.27;;;137.80;;
70592;SDS011;58294;42.988;20.338;2022-12-24T07:23:26;194.52;;;151.10;;
70592;SDS011;58294;42.988;20.338;2022-12-24T07:25:52;212.90;;;164.43;;
70592;SDS011;58294;42.988;20.338;2022-12-24T07:28:18;177.75;;;145.98;;
70592;SDS011;58294;42.988;20.338;2022-12-24T07:30:43;201.40;;;163.93;;
70592;SDS011;58294;42.988;20.338;2022-12-24T07:33:09;188.55;;;156.48;;
70592;SDS011;58294;42.988;20.338;2022-12-24T07:35:35;187.73;;;148.05;;
70592;SDS011;58294;42.988;20.338;2022-12-24T07:38:01;263.10;;;219.52;;
70592;SDS011;58294;42.988;20.338;2022-12-24T07:40:27;203.48;;;163.48;;
70592;SDS011;58294;42.988;20.338;2022-12-24T07:42:53;165.55;;;130.18;;
70592;SDS011;58294;42.988;20.338;2022-12-24T07:45:18;154.60;;;125.85;;
70592;SDS011;58294;42.988;20.338;2022-12-24T07:47:44;118.15;;;95.75;;
70592;SDS011;58294;42.988;20.338;2022-12-24T07:50:10;121.70;;;93.93;;
70592;SDS011;58294;42.988;20.338;2022-12-24T07:52:36;98.65;;;79.57;;
70592;SDS011;58294;42.988;20.338;2022-12-24T07:55:01;91.88;;;76.82;;
70592;SDS011;58294;42.988;20.338;2022-12-24T07:57:27;86.38;;;67.00;;
70592;SDS011;58294;42.988;20.338;2022-12-24T07:59:53;59.22;;;50.03;;
70592;SDS011;58294;42.988;20.338;2022-12-24T08:02:19;107.13;;;87.00;;
70592;SDS011;58294;42.988;20.338;2022-12-24T08:04:44;78.20;;;64.47;;
70592;SDS011;58294;42.988;20.338;2022-12-24T08:07:10;91.38;;;72.30;;
70592;SDS011;58294;42.988;20.338;2022-12-24T08:09:36;86.05;;;70.20;;
70592;SDS011;58294;42.988;20.338;2022-12-24T08:12:02;90.65;;;71.18;;
70592;SDS011;58294;42.988;20.338;2022-12-24T08:14:29;96.63;;;78.68;;
70592;SDS011;58294;42.988;20.338;2022-12-24T08:16:55;97.53;;;79.03;;
70592;SDS011;58294;42.988;20.338;2022-12-24T08:19:21;101.88;;;78.13;;
70592;SDS011;58294;42.988;20.338;2022-12-24T08:21:47;147.05;;;110.78;;
70592;SDS011;58294;42.988;20.338;2022-12-24T08:24:12;100.93;;;81.57;;
70592;SDS011;58294;42.988;20.338;2022-12-24T08:26:38;114.45;;;91.38;;
70592;SDS011;58294;42.988;20.338;2022-12-24T08:29:04;108.47;;;88.60;;
70592;SDS011;58294;42.988;20.338;2022-12-24T08:31:30;119.15;;;101.43;;
70592;SDS011;58294;42.988;20.338;2022-12-24T08:34:01;135.95;;;110.35;;
70592;SDS011;58294;42.988;20.338;2022-12-24T08:36:27;239.60;;;191.45;;
70592;SDS011;58294;42.988;20.338;2022-12-24T08:38:53;117.22;;;94.20;;
70592;SDS011;58294;42.988;20.338;2022-12-24T08:41:19;106.30;;;84.43;;
70592;SDS011;58294;42.988;20.338;2022-12-24T08:43:45;108.57;;;89.97;;
70592;SDS011;58294;42.988;20.338;2022-12-24T08:46:10;162.82;;;141.18;;
70592;SDS011;58294;42.988;20.338;2022-12-24T08:48:36;170.57;;;136.27;;
70592;SDS011;58294;42.988;20.338;2022-12-24T08:51:06;187.93;;;149.60;;
70592;SDS011;58294;42.988;20.338;2022-12-24T08:53:36;158.90;;;134.73;;
70592;SDS011;58294;42.988;20.338;2022-12-24T08:56:06;155.57;;;131.23;;
70592;SDS011;58294;42.988;20.338;2022-12-24T08:58:32;150.02;;;126.40;;
70592;SDS011;58294;42.988;20.338;2022-12-24T09:00:58;146.63;;;123.43;;
70592;SDS011;58294;42.988;20.338;2022-12-24T09:03:25;131.70;;;115.80;;
70592;SDS011;58294;42.988;20.338;2022-12-24T09:05:51;198.38;;;176.68;;
70592;SDS011;58294;42.988;20.338;2022-12-24T09:08:20;171.73;;;144.60;;
70592;SDS011;58294;42.988;20.338;2022-12-24T09:10:46;157.18;;;130.75;;
70592;SDS011;58294;42.988;20.338;2022-12-24T09:13:12;155.25;;;137.20;;
70592;SDS011;58294;42.988;20.338;2022-12-24T09:15:38;148.85;;;124.40;;
70592;SDS011;58294;42.988;20.338;2022-12-24T09:18:04;165.15;;;134.55;;
70592;SDS011;58294;42.988;20.338;2022-12-24T09:20:30;147.75;;;128.88;;
70592;SDS011;58294;42.988;20.338;2022-12-24T09:22:55;123.45;;;107.65;;
70592;SDS011;58294;42.988;20.338;2022-12-24T09:25:21;126.03;;;111.15;;
70592;SDS011;58294;42.988;20.338;2022-12-24T09:27:47;134.23;;;107.88;;
70592;SDS011;58294;42.988;20.338;2022-12-24T09:30:13;135.80;;;117.15;;
70592;SDS011;58294;42.988;20.338;2022-12-24T09:32:39;135.05;;;111.97;;
70592;SDS011;58294;42.988;20.338;2022-12-24T09:35:05;101.80;;;90.78;;
70592;SDS011;58294;42.988;20.338;2022-12-24T09:37:31;104.35;;;93.05;;
70592;SDS011;58294;42.988;20.338;2022-12-24T09:39:57;117.65;;;103.90;;
70592;SDS011;58294;42.988;20.338;2022-12-24T09:48:02;101.97;;;90.68;;
70592;SDS011;58294;42.988;20.338;2022-12-24T09:56:15;121.32;;;105.63;;
70592;SDS011;58294;42.988;20.338;2022-12-24T09:58:45;122.38;;;106.38;;
70592;SDS011;58294;42.988;20.338;2022-12-24T10:01:15;122.60;;;109.13;;
70592;SDS011;58294;42.988;20.338;2022-12-24T10:03:42;129.32;;;112.38;;
70592;SDS011;58294;42.988;20.338;2022-12-24T10:08:47;118.03;;;105.10;;
70592;SDS011;58294;42.988;20.338;2022-12-24T10:13:53;160.68;;;142.98;;
70592;SDS011;58294;42.988;20.338;2022-12-24T10:16:24;157.73;;;135.50;;
70592;SDS011;58294;42.988;20.338;2022-12-24T10:27:34;151.45;;;130.25;;
70592;SDS011;58294;42.988;20.338;2022-12-24T10:30:11;400.45;;;323.02;;
70592;SDS011;58294;42.988;20.338;2022-12-24T10:32:40;213.45;;;169.80;;
70592;SDS011;58294;42.988;20.338;2022-12-24T10:37:41;158.05;;;129.05;;
70592;SDS011;58294;42.988;20.338;2022-12-24T10:42:46;184.40;;;152.10;;
70592;SDS011;58294;42.988;20.338;2022-12-24T10:45:16;243.05;;;188.73;;
70592;SDS011;58294;42.988;20.338;2022-12-24T10:47:44;208.40;;;169.43;;
70592;SDS011;58294;42.988;20.338;2022-12-24T10:50:18;182.60;;;147.10;;
70592;SDS011;58294;42.988;20.338;2022-12-24T10:52:48;211.18;;;162.68;;
70592;SDS011;58294;42.988;20.338;2022-12-24T10:57:42;191.32;;;162.05;;
70592;SDS011;58294;42.988;20.338;2022-12-24T11:00:22;162.20;;;144.43;;
70592;SDS011;58294;42.988;20.338;2022-12-24T11:02:49;162.40;;;143.65;;
70592;SDS011;58294;42.988;20.338;2022-12-24T11:05:45;175.45;;;146.38;;
70592;SDS011;58294;42.988;20.338;2022-12-24T11:08:22;165.65;;;147.65;;
70592;SDS011;58294;42.988;20.338;2022-12-24T11:10:53;162.38;;;144.35;;
70592;SDS011;58294;42.988;20.338;2022-12-24T11:15:59;165.32;;;144.07;;
70592;SDS011;58294;42.988;20.338;2022-12-24T11:18:47;171.23;;;149.15;;
70592;SDS011;58294;42.988;20.338;2022-12-24T11:21:22;186.68;;;154.52;;
70592;SDS011;58294;42.988;20.338;2022-12-24T11:23:51;196.90;;;175.18;;
70592;SDS011;58294;42.988;20.338;2022-12-24T11:26:21;231.00;;;200.73;;
70592;SDS011;58294;42.988;20.338;2022-12-24T11:31:32;227.38;;;201.90;;
70592;SDS011;58294;42.988;20.338;2022-12-24T11:34:03;184.98;;;164.45;;
70592;SDS011;58294;42.988;20.338;2022-12-24T11:36:51;197.02;;;174.70;;
70592;SDS011;58294;42.988;20.338;2022-12-24T11:39:21;193.07;;;172.15;;
70592;SDS011;58294;42.988;20.338;2022-12-24T11:41:49;221.88;;;196.63;;
70592;SDS011;58294;42.988;20.338;2022-12-24T11:44:21;221.57;;;197.07;;
70592;SDS011;58294;42.988;20.338;2022-12-24T11:46:48;269.10;;;231.75;;
70592;SDS011;58294;42.988;20.338;2022-12-24T11:49:22;298.35;;;249.73;;
70592;SDS011;58294;42.988;20.338;2022-12-24T11:57:55;202.43;;;180.85;;
70592;SDS011;58294;42.988;20.338;2022-12-24T12:00:27;200.52;;;175.30;;
70592;SDS011;58294;42.988;20.338;2022-12-24T12:02:54;190.70;;;154.90;;
70592;SDS011;58294;42.988;20.338;2022-12-24T12:05:24;193.82;;;160.75;;
70592;SDS011;58294;42.988;20.338;2022-12-24T12:08:06;173.20;;;148.55;;
70592;SDS011;58294;42.988;20.338;2022-12-24T12:10:38;120.28;;;106.07;;
70592;SDS011;58294;42.988;20.338;2022-12-24T12:13:10;122.82;;;105.80;;
70592;SDS011;58294;42.988;20.338;2022-12-24T12:15:42;252.02;;;214.43;;
70592;SDS011;58294;42.988;20.338;2022-12-24T12:18:15;245.48;;;208.95;;
70592;SDS011;58294;42.988;20.338;2022-12-24T12:20:51;197.60;;;169.85;;
70592;SDS011;58294;42.988;20.338;2022-12-24T12:23:23;174.52;;;146.40;;
70592;SDS011;58294;42.988;20.338;2022-12-24T12:25:54;128.35;;;107.80;;
70592;SDS011;58294;42.988;20.338;2022-12-24T12:34:28;112.18;;;98.60;;
70592;SDS011;58294;42.988;20.338;2022-12-24T12:37:46;116.40;;;98.18;;
70592;SDS011;58294;42.988;20.338;2022-12-24T12:39:58;115.47;;;102.85;;
70592;SDS011;58294;42.988;20.338;2022-12-24T12:44:58;118.93;;;103.18;;
70592;SDS011;58294;42.988;20.338;2022-12-24T12:47:41;72.90;;;60.97;;
70592;SDS011;58294;42.988;20.338;2022-12-24T12:53:12;100.20;;;79.97;;
70592;SDS011;58294;42.988;20.338;2022-12-24T12:58:48;174.52;;;137.88;;
70592;SDS011;58294;42.988;20.338;2022-12-24T13:10:11;29.20;;;25.60;;
70592;SDS011;58294;42.988;20.338;2022-12-24T13:20:40;31.98;;;25.23;;
70592;SDS011;58294;42.988;20.338;2022-12-24T13:23:16;31.15;;;24.77;;
70592;SDS011;58294;42.988;20.338;2022-12-24T13:25:47;34.85;;;27.42;;
70592;SDS011;58294;42.988;20.338;2022-12-24T13:30:47;30.75;;;26.95;;
70592;SDS011;58294;42.988;20.338;2022-12-24T13:36:06;64.10;;;46.83;;
70592;SDS011;58294;42.988;20.338;2022-12-24T13:44:01;65.85;;;54.75;;
70592;SDS011;58294;42.988;20.338;2022-12-24T13:49:33;93.95;;;78.15;;
70592;SDS011;58294;42.988;20.338;2022-12-24T13:52:07;93.85;;;80.05;;
70592;SDS011;58294;42.988;20.338;2022-12-24T13:54:40;88.47;;;77.67;;
70592;SDS011;58294;42.988;20.338;2022-12-24T13:57:27;69.32;;;61.60;;
70592;SDS011;58294;42.988;20.338;2022-12-24T14:02:49;58.00;;;48.28;;
70592;SDS011;58294;42.988;20.338;2022-12-24T14:05:17;58.15;;;49.83;;
70592;SDS011;58294;42.988;20.338;2022-12-24T14:07:50;57.47;;;51.30;;
70592;SDS011;58294;42.988;20.338;2022-12-24T14:10:24;57.45;;;49.65;;
70592;SDS011;58294;42.988;20.338;2022-12-24T14:12:53;55.00;;;45.45;;
70592;SDS011;58294;42.988;20.338;2022-12-24T14:18:17;59.05;;;51.08;;
70592;SDS011;58294;42.988;20.338;2022-12-24T14:20:47;55.80;;;46.60;;
70592;SDS011;58294;42.988;20.338;2022-12-24T14:26:20;61.65;;;48.75;;
70592;SDS011;58294;42.988;20.338;2022-12-24T14:28:55;59.50;;;51.08;;
70592;SDS011;58294;42.988;20.338;2022-12-24T14:31:27;112.35;;;83.88;;
70592;SDS011;58294;42.988;20.338;2022-12-24T14:34:14;71.03;;;57.15;;
70592;SDS011;58294;42.988;20.338;2022-12-24T14:36:39;67.80;;;55.58;;
70592;SDS011;58294;42.988;20.338;2022-12-24T14:39:08;108.90;;;93.57;;
70592;SDS011;58294;42.988;20.338;2022-12-24T14:41:51;73.07;;;61.38;;
70592;SDS011;58294;42.988;20.338;2022-12-24T14:44:27;83.85;;;65.38;;
70592;SDS011;58294;42.988;20.338;2022-12-24T14:53:12;77.75;;;63.90;;
70592;SDS011;58294;42.988;20.338;2022-12-24T14:56:05;45.22;;;37.63;;
70592;SDS011;58294;42.988;20.338;2022-12-24T14:58:41;49.78;;;44.17;;
70592;SDS011;58294;42.988;20.338;2022-12-24T15:06:38;48.38;;;36.60;;
70592;SDS011;58294;42.988;20.338;2022-12-24T15:09:09;44.42;;;31.42;;
70592;SDS011;58294;42.988;20.338;2022-12-24T15:11:45;42.30;;;34.90;;
70592;SDS011;58294;42.988;20.338;2022-12-24T15:14:14;90.35;;;71.32;;
70592;SDS011;58294;42.988;20.338;2022-12-24T15:16:41;125.03;;;91.90;;
70592;SDS011;58294;42.988;20.338;2022-12-24T15:19:55;66.03;;;50.13;;
70592;SDS011;58294;42.988;20.338;2022-12-24T15:22:03;458.08;;;283.42;;
70592;SDS011;58294;42.988;20.338;2022-12-24T15:24:30;430.10;;;262.45;;
70592;SDS011;58294;42.988;20.338;2022-12-24T15:27:02;497.90;;;329.95;;
70592;SDS011;58294;42.988;20.338;2022-12-24T15:29:38;225.52;;;133.57;;
70592;SDS011;58294;42.988;20.338;2022-12-24T15:32:09;73.97;;;49.17;;
70592;SDS011;58294;42.988;20.338;2022-12-24T15:34:41;64.70;;;41.47;;
70592;SDS011;58294;42.988;20.338;2022-12-24T15:37:13;361.17;;;211.90;;
70592;SDS011;58294;42.988;20.338;2022-12-24T15:42:41;285.27;;;171.65;;
70592;SDS011;58294;42.988;20.338;2022-12-24T15:45:17;321.65;;;203.48;;
70592;SDS011;58294;42.988;20.338;2022-12-24T15:50:18;185.75;;;123.10;;
70592;SDS011;58294;42.988;20.338;2022-12-24T15:52:54;149.27;;;100.10;;
70592;SDS011;58294;42.988;20.338;2022-12-24T15:55:40;114.55;;;81.68;;
70592;SDS011;58294;42.988;20.338;2022-12-24T16:00:40;97.90;;;71.18;;
70592;SDS011;58294;42.988;20.338;2022-12-24T16:03:10;66.97;;;50.20;;
70592;SDS011;58294;42.988;20.338;2022-12-24T16:05:44;52.22;;;44.58;;
70592;SDS011;58294;42.988;20.338;2022-12-24T16:10:41;68.30;;;54.38;;
70592;SDS011;58294;42.988;20.338;2022-12-24T16:13:28;62.58;;;49.75;;
70592;SDS011;58294;42.988;20.338;2022-12-24T16:15:56;73.20;;;57.08;;
70592;SDS011;58294;42.988;20.338;2022-12-24T16:18:32;45.85;;;37.10;;
70592;SDS011;58294;42.988;20.338;2022-12-24T16:21:00;55.22;;;42.55;;
70592;SDS011;58294;42.988;20.338;2022-12-24T16:23:31;57.88;;;43.25;;
70592;SDS011;58294;42.988;20.338;2022-12-24T16:26:02;68.07;;;51.05;;
70592;SDS011;58294;42.988;20.338;2022-12-24T16:28:28;71.75;;;56.95;;
70592;SDS011;58294;42.988;20.338;2022-12-24T16:30:54;44.97;;;37.03;;
70592;SDS011;58294;42.988;20.338;2022-12-24T16:33:21;69.28;;;54.08;;
70592;SDS011;58294;42.988;20.338;2022-12-24T16:35:48;75.60;;;55.05;;
70592;SDS011;58294;42.988;20.338;2022-12-24T16:38:14;116.82;;;94.53;;